sensor_id;sensor_type;location;lat;lon;timestamp;temperature;humidity
33207;DHT22;19565;46.602;11.534;2022-08-01T00:00:11;20.90;84.40
33207;DHT22;19565;46.602;11.534;2022-08-01T00:02:40;21.10;84.20
33207;DHT22;19565;46.602;11.534;2022-08-01T00:05:08;21.30;85.50
33207;DHT22;19565;46.602;11.534;2022-08-01T00:07:37;21.40;85.70
33207;DHT22;19565;46.602;11.534;2022-08-01T00:10:08;21.50;84.20
33207;DHT22;19565;46.602;11.534;2022-08-01T00:12:37;21.10;83.00
33207;DHT22;19565;46.602;11.534;2022-08-01T00:15:07;21.20;83.00
33207;DHT22;19565;46.602;11.534;2022-08-01T00:17:37;21.30;83.90
33207;DHT22;19565;46.602;11.534;2022-08-01T00:20:07;21.40;84.90
33207;DHT22;19565;46.602;11.534;2022-08-01T00:22:35;21.40;84.20
33207;DHT22;19565;46.602;11.534;2022-08-01T00:25:05;21.40;83.40
33207;DHT22;19565;46.602;11.534;2022-08-01T00:27:34;21.10;83.60
33207;DHT22;19565;46.602;11.534;2022-08-01T00:30:04;20.90;84.90
33207;DHT22;19565;46.602;11.534;2022-08-01T00:32:41;20.80;85.90
33207;DHT22;19565;46.602;11.534;2022-08-01T00:35:10;20.80;86.80
33207;DHT22;19565;46.602;11.534;2022-08-01T00:37:38;21.00;87.10
33207;DHT22;19565;46.602;11.534;2022-08-01T00:40:07;21.10;85.50
33207;DHT22;19565;46.602;11.534;2022-08-01T00:42:35;21.10;84.50
33207;DHT22;19565;46.602;11.534;2022-08-01T00:45:09;21.20;84.10
33207;DHT22;19565;46.602;11.534;2022-08-01T00:47:38;21.30;85.30
33207;DHT22;19565;46.602;11.534;2022-08-01T00:50:08;21.30;85.60
33207;DHT22;19565;46.602;11.534;2022-08-01T00:52:39;21.20;84.90
33207;DHT22;19565;46.602;11.534;2022-08-01T00:55:08;21.20;83.80
33207;DHT22;19565;46.602;11.534;2022-08-01T00:57:41;21.20;84.00
33207;DHT22;19565;46.602;11.534;2022-08-01T01:00:29;21.30;83.90
33207;DHT22;19565;46.602;11.534;2022-08-01T01:03:00;21.30;86.30
33207;DHT22;19565;46.602;11.534;2022-08-01T01:05:32;21.20;87.10
33207;DHT22;19565;46.602;11.534;2022-08-01T01:08:06;21.20;86.80
33207;DHT22;19565;46.602;11.534;2022-08-01T01:10:40;21.10;85.60
33207;DHT22;19565;46.602;11.534;2022-08-01T01:13:15;20.90;85.20
33207;DHT22;19565;46.602;11.534;2022-08-01T01:15:47;20.80;86.50
33207;DHT22;19565;46.602;11.534;2022-08-01T01:18:20;21.00;86.70
33207;DHT22;19565;46.602;11.534;2022-08-01T01:20:54;21.00;87.40
33207;DHT22;19565;46.602;11.534;2022-08-01T01:23:44;21.00;88.40
33207;DHT22;19565;46.602;11.534;2022-08-01T01:26:36;21.00;88.30
33207;DHT22;19565;46.602;11.534;2022-08-01T01:29:13;20.90;87.90
33207;DHT22;19565;46.602;11.534;2022-08-01T01:31:47;20.90;87.90
33207;DHT22;19565;46.602;11.534;2022-08-01T01:34:18;20.80;87.90
33207;DHT22;19565;46.602;11.534;2022-08-01T01:36:50;20.80;88.20
33207;DHT22;19565;46.602;11.534;2022-08-01T01:39:20;20.80;88.20
33207;DHT22;19565;46.602;11.534;2022-08-01T01:41:50;20.80;88.80
33207;DHT22;19565;46.602;11.534;2022-08-01T01:44:20;20.70;89.00
33207;DHT22;19565;46.602;11.534;2022-08-01T01:46:50;20.70;89.00
33207;DHT22;19565;46.602;11.534;2022-08-01T01:49:20;20.70;88.70
33207;DHT22;19565;46.602;11.534;2022-08-01T01:51:50;20.70;88.90
33207;DHT22;19565;46.602;11.534;2022-08-01T01:54:31;20.70;90.00
33207;DHT22;19565;46.602;11.534;2022-08-01T01:57:02;20.70;90.10
33207;DHT22;19565;46.602;11.534;2022-08-01T01:59:34;20.60;90.30
33207;DHT22;19565;46.602;11.534;2022-08-01T02:02:05;20.60;90.40
33207;DHT22;19565;46.602;11.534;2022-08-01T02:04:37;20.60;90.40
33207;DHT22;19565;46.602;11.534;2022-08-01T02:07:11;20.60;90.40
33207;DHT22;19565;46.602;11.534;2022-08-01T02:09:42;20.50;90.30
33207;DHT22;19565;46.602;11.534;2022-08-01T02:12:10;20.50;90.40
33207;DHT22;19565;46.602;11.534;2022-08-01T02:14:42;20.50;90.40
33207;DHT22;19565;46.602;11.534;2022-08-01T02:17:15;20.40;90.40
33207;DHT22;19565;46.602;11.534;2022-08-01T02:19:44;20.40;90.20
33207;DHT22;19565;46.602;11.534;2022-08-01T02:22:18;20.10;89.10
33207;DHT22;19565;46.602;11.534;2022-08-01T02:24:52;20.20;90.50
33207;DHT22;19565;46.602;11.534;2022-08-01T02:27:25;20.30;90.50
33207;DHT22;19565;46.602;11.534;2022-08-01T02:29:59;20.40;90.10
33207;DHT22;19565;46.602;11.534;2022-08-01T02:32:31;20.40;90.00
33207;DHT22;19565;46.602;11.534;2022-08-01T02:35:01;20.30;89.00
33207;DHT22;19565;46.602;11.534;2022-08-01T02:37:33;20.20;89.10
33207;DHT22;19565;46.602;11.534;2022-08-01T02:40:03;20.20;90.20
33207;DHT22;19565;46.602;11.534;2022-08-01T02:42:35;20.30;90.30
33207;DHT22;19565;46.602;11.534;2022-08-01T02:45:07;20.30;90.40
33207;DHT22;19565;46.602;11.534;2022-08-01T02:47:38;20.20;90.40
33207;DHT22;19565;46.602;11.534;2022-08-01T02:50:10;20.20;90.60
33207;DHT22;19565;46.602;11.534;2022-08-01T02:52:40;20.10;90.30
33207;DHT22;19565;46.602;11.534;2022-08-01T02:55:10;20.20;90.10
33207;DHT22;19565;46.602;11.534;2022-08-01T02:57:40;20.20;90.60
33207;DHT22;19565;46.602;11.534;2022-08-01T03:00:20;20.20;90.90
33207;DHT22;19565;46.602;11.534;2022-08-01T03:02:51;20.20;90.70
33207;DHT22;19565;46.602;11.534;2022-08-01T03:05:22;20.10;90.60
33207;DHT22;19565;46.602;11.534;2022-08-01T03:07:53;20.00;90.90
33207;DHT22;19565;46.602;11.534;2022-08-01T03:10:29;20.00;91.00
33207;DHT22;19565;46.602;11.534;2022-08-01T03:12:59;19.90;91.10
33207;DHT22;19565;46.602;11.534;2022-08-01T03:15:31;19.90;90.80
33207;DHT22;19565;46.602;11.534;2022-08-01T03:18:02;19.90;90.90
33207;DHT22;19565;46.602;11.534;2022-08-01T03:20:32;19.80;90.90
33207;DHT22;19565;46.602;11.534;2022-08-01T03:23:04;19.90;90.70
33207;DHT22;19565;46.602;11.534;2022-08-01T03:25:35;19.90;90.70
33207;DHT22;19565;46.602;11.534;2022-08-01T03:28:05;19.90;91.10
33207;DHT22;19565;46.602;11.534;2022-08-01T03:30:36;19.90;90.80
33207;DHT22;19565;46.602;11.534;2022-08-01T03:33:08;19.90;90.70
33207;DHT22;19565;46.602;11.534;2022-08-01T03:35:53;19.90;91.00
33207;DHT22;19565;46.602;11.534;2022-08-01T03:38:23;19.90;91.20
33207;DHT22;19565;46.602;11.534;2022-08-01T03:40:55;19.80;91.20
33207;DHT22;19565;46.602;11.534;2022-08-01T03:43:28;19.80;91.20
33207;DHT22;19565;46.602;11.534;2022-08-01T03:46:02;19.80;91.20
33207;DHT22;19565;46.602;11.534;2022-08-01T03:48:39;19.80;91.10
33207;DHT22;19565;46.602;11.534;2022-08-01T03:51:09;19.60;90.80
33207;DHT22;19565;46.602;11.534;2022-08-01T03:53:38;19.60;91.10
33207;DHT22;19565;46.602;11.534;2022-08-01T03:56:11;19.60;90.80
33207;DHT22;19565;46.602;11.534;2022-08-01T03:58:42;19.10;91.70
33207;DHT22;19565;46.602;11.534;2022-08-01T04:01:18;18.90;92.30
33207;DHT22;19565;46.602;11.534;2022-08-01T04:03:46;18.70;92.40
33207;DHT22;19565;46.602;11.534;2022-08-01T04:06:14;18.90;92.30
33207;DHT22;19565;46.602;11.534;2022-08-01T04:08:43;19.10;92.30
33207;DHT22;19565;46.602;11.534;2022-08-01T04:11:24;19.30;92.50
33207;DHT22;19565;46.602;11.534;2022-08-01T04:13:53;19.40;92.40
33207;DHT22;19565;46.602;11.534;2022-08-01T04:16:22;19.40;92.10
33207;DHT22;19565;46.602;11.534;2022-08-01T04:18:51;19.40;92.20
33207;DHT22;19565;46.602;11.534;2022-08-01T04:21:22;19.50;92.00
33207;DHT22;19565;46.602;11.534;2022-08-01T04:23:54;19.40;91.40
33207;DHT22;19565;46.602;11.534;2022-08-01T04:26:24;19.50;91.60
33207;DHT22;19565;46.602;11.534;2022-08-01T04:28:54;19.50;91.40
33207;DHT22;19565;46.602;11.534;2022-08-01T04:31:25;19.60;91.30
33207;DHT22;19565;46.602;11.534;2022-08-01T04:33:57;19.60;91.40
33207;DHT22;19565;46.602;11.534;2022-08-01T04:36:27;19.40;91.20
33207;DHT22;19565;46.602;11.534;2022-08-01T04:39:00;19.40;91.50
33207;DHT22;19565;46.602;11.534;2022-08-01T04:41:30;19.50;91.70
33207;DHT22;19565;46.602;11.534;2022-08-01T04:43:58;19.60;92.00
33207;DHT22;19565;46.602;11.534;2022-08-01T04:46:29;19.60;91.90
33207;DHT22;19565;46.602;11.534;2022-08-01T04:48:58;19.60;91.80
33207;DHT22;19565;46.602;11.534;2022-08-01T04:51:27;19.60;91.70
33207;DHT22;19565;46.602;11.534;2022-08-01T04:53:55;19.50;91.60
33207;DHT22;19565;46.602;11.534;2022-08-01T04:56:24;19.60;91.70
33207;DHT22;19565;46.602;11.534;2022-08-01T04:58:52;19.60;91.70
33207;DHT22;19565;46.602;11.534;2022-08-01T05:01:36;19.60;91.70
33207;DHT22;19565;46.602;11.534;2022-08-01T05:04:04;19.60;91.30
33207;DHT22;19565;46.602;11.534;2022-08-01T05:06:32;19.50;91.10
33207;DHT22;19565;46.602;11.534;2022-08-01T05:09:00;19.20;91.90
33207;DHT22;19565;46.602;11.534;2022-08-01T05:11:28;19.30;91.80
33207;DHT22;19565;46.602;11.534;2022-08-01T05:13:57;19.30;91.70
33207;DHT22;19565;46.602;11.534;2022-08-01T05:16:25;19.40;91.80
33207;DHT22;19565;46.602;11.534;2022-08-01T05:18:55;19.60;91.70
33207;DHT22;19565;46.602;11.534;2022-08-01T05:21:23;19.60;91.60
33207;DHT22;19565;46.602;11.534;2022-08-01T05:23:51;19.70;91.60
33207;DHT22;19565;46.602;11.534;2022-08-01T05:26:19;19.70;91.20
33207;DHT22;19565;46.602;11.534;2022-08-01T05:28:47;19.60;91.20
33207;DHT22;19565;46.602;11.534;2022-08-01T05:31:16;19.50;91.30
33207;DHT22;19565;46.602;11.534;2022-08-01T05:33:44;19.50;91.30
33207;DHT22;19565;46.602;11.534;2022-08-01T05:36:13;19.40;91.40
33207;DHT22;19565;46.602;11.534;2022-08-01T05:38:41;19.20;91.60
33207;DHT22;19565;46.602;11.534;2022-08-01T05:41:10;18.90;92.50
33207;DHT22;19565;46.602;11.534;2022-08-01T05:43:38;18.90;92.60
33207;DHT22;19565;46.602;11.534;2022-08-01T05:46:06;18.90;92.70
33207;DHT22;19565;46.602;11.534;2022-08-01T05:48:34;18.90;92.80
33207;DHT22;19565;46.602;11.534;2022-08-01T05:51:02;18.80;93.00
33207;DHT22;19565;46.602;11.534;2022-08-01T05:53:32;18.80;93.00
33207;DHT22;19565;46.602;11.534;2022-08-01T05:56:01;18.80;92.90
33207;DHT22;19565;46.602;11.534;2022-08-01T05:58:29;18.90;93.00
33207;DHT22;19565;46.602;11.534;2022-08-01T06:00:58;18.80;92.90
33207;DHT22;19565;46.602;11.534;2022-08-01T06:03:26;18.90;92.90
33207;DHT22;19565;46.602;11.534;2022-08-01T06:05:58;19.00;92.70
33207;DHT22;19565;46.602;11.534;2022-08-01T06:08:26;19.00;92.70
33207;DHT22;19565;46.602;11.534;2022-08-01T06:10:56;19.00;92.60
33207;DHT22;19565;46.602;11.534;2022-08-01T06:13:24;19.10;92.50
33207;DHT22;19565;46.602;11.534;2022-08-01T06:15:52;19.00;92.60
33207;DHT22;19565;46.602;11.534;2022-08-01T06:18:21;19.00;92.60
33207;DHT22;19565;46.602;11.534;2022-08-01T06:20:49;19.10;92.50
33207;DHT22;19565;46.602;11.534;2022-08-01T06:23:17;19.10;92.40
33207;DHT22;19565;46.602;11.534;2022-08-01T06:26:00;19.10;92.40
33207;DHT22;19565;46.602;11.534;2022-08-01T06:28:28;19.20;92.10
33207;DHT22;19565;46.602;11.534;2022-08-01T06:30:56;19.30;92.00
33207;DHT22;19565;46.602;11.534;2022-08-01T06:33:26;19.40;91.60
33207;DHT22;19565;46.602;11.534;2022-08-01T06:35:55;19.50;91.50
33207;DHT22;19565;46.602;11.534;2022-08-01T06:38:23;19.70;91.30
33207;DHT22;19565;46.602;11.534;2022-08-01T06:40:51;19.80;91.00
33207;DHT22;19565;46.602;11.534;2022-08-01T06:43:21;19.90;90.80
33207;DHT22;19565;46.602;11.534;2022-08-01T06:45:49;20.00;90.70
33207;DHT22;19565;46.602;11.534;2022-08-01T06:48:17;20.10;90.60
33207;DHT22;19565;46.602;11.534;2022-08-01T06:50:45;20.20;90.50
33207;DHT22;19565;46.602;11.534;2022-08-01T06:53:13;20.20;90.10
33207;DHT22;19565;46.602;11.534;2022-08-01T06:55:41;20.20;90.00
33207;DHT22;19565;46.602;11.534;2022-08-01T06:58:09;20.40;89.80
33207;DHT22;19565;46.602;11.534;2022-08-01T07:00:39;20.50;89.70
33207;DHT22;19565;46.602;11.534;2022-08-01T07:03:09;20.60;89.00
33207;DHT22;19565;46.602;11.534;2022-08-01T07:05:37;20.60;88.50
33207;DHT22;19565;46.602;11.534;2022-08-01T07:08:05;20.70;88.20
33207;DHT22;19565;46.602;11.534;2022-08-01T07:10:33;20.80;87.50
33207;DHT22;19565;46.602;11.534;2022-08-01T07:13:01;20.90;87.30
33207;DHT22;19565;46.602;11.534;2022-08-01T07:15:29;20.90;87.00
33207;DHT22;19565;46.602;11.534;2022-08-01T07:17:59;21.00;86.60
33207;DHT22;19565;46.602;11.534;2022-08-01T07:20:30;21.00;86.00
33207;DHT22;19565;46.602;11.534;2022-08-01T07:23:06;21.10;85.20
33207;DHT22;19565;46.602;11.534;2022-08-01T07:25:38;21.20;83.30
33207;DHT22;19565;46.602;11.534;2022-08-01T07:28:16;21.20;83.60
33207;DHT22;19565;46.602;11.534;2022-08-01T07:30:44;21.30;83.20
33207;DHT22;19565;46.602;11.534;2022-08-01T07:33:13;21.40;83.30
33207;DHT22;19565;46.602;11.534;2022-08-01T07:35:42;21.50;82.40
33207;DHT22;19565;46.602;11.534;2022-08-01T07:38:10;21.60;82.80
33207;DHT22;19565;46.602;11.534;2022-08-01T07:40:38;21.70;82.30
33207;DHT22;19565;46.602;11.534;2022-08-01T07:43:06;21.70;80.40
33207;DHT22;19565;46.602;11.534;2022-08-01T07:45:35;21.80;80.90
33207;DHT22;19565;46.602;11.534;2022-08-01T07:48:04;21.90;80.80
33207;DHT22;19565;46.602;11.534;2022-08-01T07:50:36;21.90;79.80
33207;DHT22;19565;46.602;11.534;2022-08-01T07:53:04;22.00;79.30
33207;DHT22;19565;46.602;11.534;2022-08-01T07:55:33;22.10;79.50
33207;DHT22;19565;46.602;11.534;2022-08-01T07:58:01;22.10;78.50
33207;DHT22;19565;46.602;11.534;2022-08-01T08:00:29;22.20;79.00
33207;DHT22;19565;46.602;11.534;2022-08-01T08:02:57;22.30;79.40
33207;DHT22;19565;46.602;11.534;2022-08-01T08:05:26;22.40;79.20
33207;DHT22;19565;46.602;11.534;2022-08-01T08:08:15;22.40;79.00
33207;DHT22;19565;46.602;11.534;2022-08-01T08:10:47;22.60;78.10
33207;DHT22;19565;46.602;11.534;2022-08-01T08:13:16;22.60;76.00
33207;DHT22;19565;46.602;11.534;2022-08-01T08:15:46;22.70;75.80
33207;DHT22;19565;46.602;11.534;2022-08-01T08:18:14;22.70;75.00
33207;DHT22;19565;46.602;11.534;2022-08-01T08:20:43;22.80;74.10
33207;DHT22;19565;46.602;11.534;2022-08-01T08:23:11;22.90;74.00
33207;DHT22;19565;46.602;11.534;2022-08-01T08:26:11;23.00;74.00
33207;DHT22;19565;46.602;11.534;2022-08-01T08:28:39;23.10;73.60
33207;DHT22;19565;46.602;11.534;2022-08-01T08:31:07;23.20;72.40
33207;DHT22;19565;46.602;11.534;2022-08-01T08:33:56;23.20;71.10
33207;DHT22;19565;46.602;11.534;2022-08-01T08:36:24;23.40;71.30
33207;DHT22;19565;46.602;11.534;2022-08-01T08:38:57;23.50;71.80
33207;DHT22;19565;46.602;11.534;2022-08-01T08:41:29;23.60;71.20
33207;DHT22;19565;46.602;11.534;2022-08-01T08:44:05;23.60;70.00
33207;DHT22;19565;46.602;11.534;2022-08-01T08:46:41;23.80;69.10
33207;DHT22;19565;46.602;11.534;2022-08-01T08:49:13;23.80;68.00
33207;DHT22;19565;46.602;11.534;2022-08-01T08:51:48;23.90;68.20
33207;DHT22;19565;46.602;11.534;2022-08-01T08:54:18;23.90;66.50
33207;DHT22;19565;46.602;11.534;2022-08-01T08:56:59;24.10;65.80
33207;DHT22;19565;46.602;11.534;2022-08-01T08:59:28;24.20;65.80
33207;DHT22;19565;46.602;11.534;2022-08-01T09:01:56;24.20;64.80
33207;DHT22;19565;46.602;11.534;2022-08-01T09:04:25;24.30;64.50
33207;DHT22;19565;46.602;11.534;2022-08-01T09:06:54;24.40;63.40
33207;DHT22;19565;46.602;11.534;2022-08-01T09:09:23;24.40;63.30
33207;DHT22;19565;46.602;11.534;2022-08-01T09:11:51;24.40;62.60
33207;DHT22;19565;46.602;11.534;2022-08-01T09:14:25;24.60;62.50
33207;DHT22;19565;46.602;11.534;2022-08-01T09:17:02;24.60;61.50
33207;DHT22;19565;46.602;11.534;2022-08-01T09:19:38;24.70;59.80
33207;DHT22;19565;46.602;11.534;2022-08-01T09:22:10;24.80;57.90
33207;DHT22;19565;46.602;11.534;2022-08-01T09:24:39;25.00;57.40
33207;DHT22;19565;46.602;11.534;2022-08-01T09:27:18;25.10;57.40
33207;DHT22;19565;46.602;11.534;2022-08-01T09:29:51;25.20;58.20
33207;DHT22;19565;46.602;11.534;2022-08-01T09:32:28;25.20;56.10
33207;DHT22;19565;46.602;11.534;2022-08-01T09:35:25;25.30;57.60
33207;DHT22;19565;46.602;11.534;2022-08-01T09:38:16;25.40;58.50
33207;DHT22;19565;46.602;11.534;2022-08-01T09:40:46;25.50;57.90
33207;DHT22;19565;46.602;11.534;2022-08-01T09:43:16;25.50;57.50
33207;DHT22;19565;46.602;11.534;2022-08-01T09:45:46;25.60;57.60
33207;DHT22;19565;46.602;11.534;2022-08-01T09:48:17;25.60;57.90
33207;DHT22;19565;46.602;11.534;2022-08-01T09:50:54;25.60;59.60
33207;DHT22;19565;46.602;11.534;2022-08-01T09:53:45;25.70;58.50
33207;DHT22;19565;46.602;11.534;2022-08-01T09:56:20;25.70;57.50
33207;DHT22;19565;46.602;11.534;2022-08-01T09:58:51;25.70;57.60
33207;DHT22;19565;46.602;11.534;2022-08-01T10:01:27;25.80;57.40
33207;DHT22;19565;46.602;11.534;2022-08-01T10:04:06;25.80;56.40
33207;DHT22;19565;46.602;11.534;2022-08-01T10:06:35;25.90;55.60
33207;DHT22;19565;46.602;11.534;2022-08-01T10:09:04;26.10;54.30
33207;DHT22;19565;46.602;11.534;2022-08-01T10:11:36;26.20;53.00
33207;DHT22;19565;46.602;11.534;2022-08-01T10:14:07;26.30;53.30
33207;DHT22;19565;46.602;11.534;2022-08-01T10:16:37;26.40;51.90
33207;DHT22;19565;46.602;11.534;2022-08-01T10:19:07;26.50;51.40
33207;DHT22;19565;46.602;11.534;2022-08-01T10:21:41;26.50;51.40
33207;DHT22;19565;46.602;11.534;2022-08-01T10:24:26;26.60;51.00
33207;DHT22;19565;46.602;11.534;2022-08-01T10:26:58;26.60;50.80
33207;DHT22;19565;46.602;11.534;2022-08-01T10:29:37;26.60;51.40
33207;DHT22;19565;46.602;11.534;2022-08-01T10:32:27;26.70;52.60
33207;DHT22;19565;46.602;11.534;2022-08-01T10:34:55;26.80;53.70
33207;DHT22;19565;46.602;11.534;2022-08-01T10:37:24;26.90;51.80
33207;DHT22;19565;46.602;11.534;2022-08-01T10:39:53;27.00;51.60
33207;DHT22;19565;46.602;11.534;2022-08-01T10:42:43;27.10;50.70
33207;DHT22;19565;46.602;11.534;2022-08-01T10:45:14;27.20;50.10
33207;DHT22;19565;46.602;11.534;2022-08-01T10:47:51;27.20;49.90
33207;DHT22;19565;46.602;11.534;2022-08-01T10:50:24;27.20;50.50
33207;DHT22;19565;46.602;11.534;2022-08-01T10:53:07;27.20;50.60
33207;DHT22;19565;46.602;11.534;2022-08-01T10:55:51;27.30;51.90
33207;DHT22;19565;46.602;11.534;2022-08-01T10:58:25;27.30;51.20
33207;DHT22;19565;46.602;11.534;2022-08-01T11:01:15;27.40;51.10
33207;DHT22;19565;46.602;11.534;2022-08-01T11:04:01;27.50;48.10
33207;DHT22;19565;46.602;11.534;2022-08-01T11:06:46;27.60;48.80
33207;DHT22;19565;46.602;11.534;2022-08-01T11:09:27;27.70;47.00
33207;DHT22;19565;46.602;11.534;2022-08-01T11:12:06;27.80;44.80
33207;DHT22;19565;46.602;11.534;2022-08-01T11:15:23;27.90;44.20
33207;DHT22;19565;46.602;11.534;2022-08-01T11:17:57;28.00;42.80
33207;DHT22;19565;46.602;11.534;2022-08-01T11:20:29;28.10;44.50
33207;DHT22;19565;46.602;11.534;2022-08-01T11:23:28;28.30;43.50
33207;DHT22;19565;46.602;11.534;2022-08-01T11:26:20;28.30;43.30
33207;DHT22;19565;46.602;11.534;2022-08-01T11:29:13;28.30;43.20
33207;DHT22;19565;46.602;11.534;2022-08-01T11:31:49;28.30;43.40
33207;DHT22;19565;46.602;11.534;2022-08-01T11:34:19;28.30;44.00
33207;DHT22;19565;46.602;11.534;2022-08-01T11:36:48;28.40;43.00
33207;DHT22;19565;46.602;11.534;2022-08-01T11:39:25;28.40;43.00
33207;DHT22;19565;46.602;11.534;2022-08-01T11:41:55;28.40;43.40
33207;DHT22;19565;46.602;11.534;2022-08-01T11:44:48;28.50;43.00
33207;DHT22;19565;46.602;11.534;2022-08-01T11:47:18;28.50;43.00
33207;DHT22;19565;46.602;11.534;2022-08-01T11:49:49;28.60;43.30
33207;DHT22;19565;46.602;11.534;2022-08-01T11:52:27;28.60;42.60
33207;DHT22;19565;46.602;11.534;2022-08-01T11:55:00;28.60;41.20
33207;DHT22;19565;46.602;11.534;2022-08-01T11:57:36;28.60;40.70
33207;DHT22;19565;46.602;11.534;2022-08-01T12:00:11;28.60;41.10
33207;DHT22;19565;46.602;11.534;2022-08-01T12:02:43;28.60;40.80
33207;DHT22;19565;46.602;11.534;2022-08-01T12:05:14;28.60;42.20
33207;DHT22;19565;46.602;11.534;2022-08-01T12:07:50;28.60;41.40
33207;DHT22;19565;46.602;11.534;2022-08-01T12:10:19;28.60;41.40
33207;DHT22;19565;46.602;11.534;2022-08-01T12:12:49;28.70;41.50
33207;DHT22;19565;46.602;11.534;2022-08-01T12:15:17;28.70;40.90
33207;DHT22;19565;46.602;11.534;2022-08-01T12:17:48;28.80;41.30
33207;DHT22;19565;46.602;11.534;2022-08-01T12:20:27;28.90;40.10
33207;DHT22;19565;46.602;11.534;2022-08-01T12:23:00;28.90;38.80
33207;DHT22;19565;46.602;11.534;2022-08-01T12:25:29;29.00;38.00
33207;DHT22;19565;46.602;11.534;2022-08-01T12:28:00;29.10;37.50
33207;DHT22;19565;46.602;11.534;2022-08-01T12:30:29;29.10;38.50
33207;DHT22;19565;46.602;11.534;2022-08-01T12:32:58;29.20;37.80
33207;DHT22;19565;46.602;11.534;2022-08-01T12:35:28;29.20;37.40
33207;DHT22;19565;46.602;11.534;2022-08-01T12:37:59;29.30;38.80
33207;DHT22;19565;46.602;11.534;2022-08-01T12:40:29;29.30;38.20
33207;DHT22;19565;46.602;11.534;2022-08-01T12:42:59;29.20;38.80
33207;DHT22;19565;46.602;11.534;2022-08-01T12:45:31;29.30;38.20
33207;DHT22;19565;46.602;11.534;2022-08-01T12:48:01;29.30;38.40
33207;DHT22;19565;46.602;11.534;2022-08-01T12:50:31;29.30;36.80
33207;DHT22;19565;46.602;11.534;2022-08-01T12:53:02;29.50;37.10
33207;DHT22;19565;46.602;11.534;2022-08-01T12:55:33;29.50;37.90
33207;DHT22;19565;46.602;11.534;2022-08-01T12:58:23;29.50;37.00
33207;DHT22;19565;46.602;11.534;2022-08-01T13:01:03;29.60;37.00
33207;DHT22;19565;46.602;11.534;2022-08-01T13:03:32;29.70;37.50
33207;DHT22;19565;46.602;11.534;2022-08-01T13:06:00;29.70;37.40
33207;DHT22;19565;46.602;11.534;2022-08-01T13:08:33;29.80;37.70
33207;DHT22;19565;46.602;11.534;2022-08-01T13:11:06;29.90;37.30
33207;DHT22;19565;46.602;11.534;2022-08-01T13:13:38;29.80;37.50
33207;DHT22;19565;46.602;11.534;2022-08-01T13:16:08;29.80;37.70
33207;DHT22;19565;46.602;11.534;2022-08-01T13:18:48;29.80;37.10
33207;DHT22;19565;46.602;11.534;2022-08-01T13:21:18;29.80;37.70
33207;DHT22;19565;46.602;11.534;2022-08-01T13:24:04;29.80;37.00
33207;DHT22;19565;46.602;11.534;2022-08-01T13:26:40;29.80;37.90
33207;DHT22;19565;46.602;11.534;2022-08-01T13:29:11;29.80;38.10
33207;DHT22;19565;46.602;11.534;2022-08-01T13:31:40;29.80;38.50
33207;DHT22;19565;46.602;11.534;2022-08-01T13:34:08;29.70;38.10
33207;DHT22;19565;46.602;11.534;2022-08-01T13:36:37;29.70;38.60
33207;DHT22;19565;46.602;11.534;2022-08-01T13:39:10;29.70;39.00
33207;DHT22;19565;46.602;11.534;2022-08-01T13:41:55;29.70;39.20
33207;DHT22;19565;46.602;11.534;2022-08-01T13:44:33;29.70;39.70
33207;DHT22;19565;46.602;11.534;2022-08-01T13:47:02;29.70;42.50
33207;DHT22;19565;46.602;11.534;2022-08-01T13:49:41;29.80;41.20
33207;DHT22;19565;46.602;11.534;2022-08-01T13:52:10;29.80;40.00
33207;DHT22;19565;46.602;11.534;2022-08-01T13:54:39;30.00;37.50
33207;DHT22;19565;46.602;11.534;2022-08-01T13:57:08;30.10;38.30
33207;DHT22;19565;46.602;11.534;2022-08-01T13:59:36;30.20;38.60
33207;DHT22;19565;46.602;11.534;2022-08-01T14:02:04;30.30;38.90
33207;DHT22;19565;46.602;11.534;2022-08-01T14:04:33;30.40;38.00
33207;DHT22;19565;46.602;11.534;2022-08-01T14:07:01;30.40;38.40
33207;DHT22;19565;46.602;11.534;2022-08-01T14:09:39;30.40;38.10
33207;DHT22;19565;46.602;11.534;2022-08-01T14:12:27;30.40;38.70
33207;DHT22;19565;46.602;11.534;2022-08-01T14:14:55;30.40;38.90
33207;DHT22;19565;46.602;11.534;2022-08-01T14:17:23;30.20;40.10
33207;DHT22;19565;46.602;11.534;2022-08-01T14:19:54;30.20;38.70
33207;DHT22;19565;46.602;11.534;2022-08-01T14:22:23;30.10;38.70
33207;DHT22;19565;46.602;11.534;2022-08-01T14:24:52;30.10;40.40
33207;DHT22;19565;46.602;11.534;2022-08-01T14:27:27;30.10;42.30
33207;DHT22;19565;46.602;11.534;2022-08-01T14:29:57;30.10;41.70
33207;DHT22;19565;46.602;11.534;2022-08-01T14:32:30;30.10;42.00
33207;DHT22;19565;46.602;11.534;2022-08-01T14:35:00;30.30;42.00
33207;DHT22;19565;46.602;11.534;2022-08-01T14:37:28;30.30;43.00
33207;DHT22;19565;46.602;11.534;2022-08-01T14:40:06;30.30;44.40
33207;DHT22;19565;46.602;11.534;2022-08-01T14:42:36;30.20;45.90
33207;DHT22;19565;46.602;11.534;2022-08-01T14:45:06;30.20;45.10
33207;DHT22;19565;46.602;11.534;2022-08-01T14:47:36;30.10;44.90
33207;DHT22;19565;46.602;11.534;2022-08-01T14:50:06;30.00;45.20
33207;DHT22;19565;46.602;11.534;2022-08-01T14:52:36;30.00;44.20
33207;DHT22;19565;46.602;11.534;2022-08-01T14:55:08;30.00;43.80
33207;DHT22;19565;46.602;11.534;2022-08-01T14:57:37;30.00;45.10
33207;DHT22;19565;46.602;11.534;2022-08-01T15:00:07;30.10;44.70
33207;DHT22;19565;46.602;11.534;2022-08-01T15:02:37;30.00;47.10
33207;DHT22;19565;46.602;11.534;2022-08-01T15:05:06;29.90;49.00
33207;DHT22;19565;46.602;11.534;2022-08-01T15:07:35;29.80;46.60
33207;DHT22;19565;46.602;11.534;2022-08-01T15:10:20;29.70;45.10
33207;DHT22;19565;46.602;11.534;2022-08-01T15:12:49;29.60;46.60
33207;DHT22;19565;46.602;11.534;2022-08-01T15:15:17;29.40;49.00
33207;DHT22;19565;46.602;11.534;2022-08-01T15:17:46;29.30;49.40
33207;DHT22;19565;46.602;11.534;2022-08-01T15:20:14;29.20;49.40
33207;DHT22;19565;46.602;11.534;2022-08-01T15:22:42;29.10;50.20
33207;DHT22;19565;46.602;11.534;2022-08-01T15:25:11;29.00;51.70
33207;DHT22;19565;46.602;11.534;2022-08-01T15:27:40;28.90;52.10
33207;DHT22;19565;46.602;11.534;2022-08-01T15:30:09;28.90;52.60
33207;DHT22;19565;46.602;11.534;2022-08-01T15:32:37;28.80;53.90
33207;DHT22;19565;46.602;11.534;2022-08-01T15:35:06;28.70;54.50
33207;DHT22;19565;46.602;11.534;2022-08-01T15:37:37;28.70;55.20
33207;DHT22;19565;46.602;11.534;2022-08-01T15:40:09;28.60;56.40
33207;DHT22;19565;46.602;11.534;2022-08-01T15:42:40;28.50;57.50
33207;DHT22;19565;46.602;11.534;2022-08-01T15:45:08;28.50;57.10